sensor_id;sensor_type;location;lat;lon;timestamp;P1;durP1;ratioP1;P2;durP2;ratioP2
39066;SDS011;24821;51.988;6.020;2022-11-15T00:01:22;12.45;;;11.25;;
39066;SDS011;24821;51.988;6.020;2022-11-15T00:03:50;12.32;;;11.05;;
39066;SDS011;24821;51.988;6.020;2022-11-15T00:06:16;14.98;;;11.40;;
39066;SDS011;24821;51.988;6.020;2022-11-15T00:08:42;12.48;;;10.95;;
39066;SDS011;24821;51.988;6.020;2022-11-15T00:11:07;11.93;;;10.82;;
39066;SDS011;24821;51.988;6.020;2022-11-15T00:13:34;23.88;;;10.82;;
39066;SDS011;24821;51.988;6.020;2022-11-15T00:16:00;12.30;;;11.00;;
39066;SDS011;24821;51.988;6.020;2022-11-15T00:18:26;13.05;;;11.73;;
39066;SDS011;24821;51.988;6.020;2022-11-15T00:20:52;13.98;;;12.48;;
39066;SDS011;24821;51.988;6.020;2022-11-15T00:23:18;13.82;;;12.43;;
39066;SDS011;24821;51.988;6.020;2022-11-15T00:25:43;14.05;;;11.68;;
39066;SDS011;24821;51.988;6.020;2022-11-15T00:28:09;14.15;;;12.45;;
39066;SDS011;24821;51.988;6.020;2022-11-15T00:30:35;14.18;;;12.75;;
39066;SDS011;24821;51.988;6.020;2022-11-15T00:33:01;13.68;;;12.35;;
39066;SDS011;24821;51.988;6.020;2022-11-15T00:35:33;13.20;;;11.77;;
39066;SDS011;24821;51.988;6.020;2022-11-15T00:38:00;20.75;;;13.00;;
39066;SDS011;24821;51.988;6.020;2022-11-15T00:40:26;14.43;;;11.60;;
39066;SDS011;24821;51.988;6.020;2022-11-15T00:42:52;14.23;;;11.32;;
39066;SDS011;24821;51.988;6.020;2022-11-15T00:45:17;13.88;;;11.68;;
39066;SDS011;24821;51.988;6.020;2022-11-15T00:47:46;14.38;;;12.55;;
39066;SDS011;24821;51.988;6.020;2022-11-15T00:50:12;13.57;;;12.20;;
39066;SDS011;24821;51.988;6.020;2022-11-15T00:52:38;19.30;;;13.35;;
39066;SDS011;24821;51.988;6.020;2022-11-15T00:55:04;15.45;;;13.00;;
39066;SDS011;24821;51.988;6.020;2022-11-15T00:57:29;19.63;;;12.98;;
39066;SDS011;24821;51.988;6.020;2022-11-15T00:59:55;16.98;;;11.40;;
39066;SDS011;24821;51.988;6.020;2022-11-15T01:02:21;14.27;;;12.82;;
39066;SDS011;24821;51.988;6.020;2022-11-15T01:04:46;16.40;;;12.80;;
39066;SDS011;24821;51.988;6.020;2022-11-15T01:07:12;13.75;;;11.80;;
39066;SDS011;24821;51.988;6.020;2022-11-15T01:09:38;16.67;;;12.63;;
39066;SDS011;24821;51.988;6.020;2022-11-15T01:12:03;15.43;;;12.18;;
39066;SDS011;24821;51.988;6.020;2022-11-15T01:14:29;21.35;;;11.38;;
39066;SDS011;24821;51.988;6.020;2022-11-15T01:16:55;12.88;;;11.30;;
39066;SDS011;24821;51.988;6.020;2022-11-15T01:19:20;13.93;;;12.48;;
39066;SDS011;24821;51.988;6.020;2022-11-15T01:21:48;15.88;;;12.45;;
39066;SDS011;24821;51.988;6.020;2022-11-15T01:24:14;13.07;;;11.57;;
39066;SDS011;24821;51.988;6.020;2022-11-15T01:26:40;16.85;;;13.10;;
39066;SDS011;24821;51.988;6.020;2022-11-15T01:29:06;13.65;;;11.50;;
39066;SDS011;24821;51.988;6.020;2022-11-15T01:31:31;14.20;;;12.80;;
39066;SDS011;24821;51.988;6.020;2022-11-15T01:33:57;13.25;;;12.05;;
39066;SDS011;24821;51.988;6.020;2022-11-15T01:36:22;12.55;;;11.38;;
39066;SDS011;24821;51.988;6.020;2022-11-15T01:38:58;13.45;;;12.02;;
39066;SDS011;24821;51.988;6.020;2022-11-15T01:41:26;11.65;;;10.43;;
39066;SDS011;24821;51.988;6.020;2022-11-15T01:43:57;13.55;;;12.25;;
39066;SDS011;24821;51.988;6.020;2022-11-15T01:46:44;13.27;;;11.75;;
39066;SDS011;24821;51.988;6.020;2022-11-15T01:49:20;13.93;;;12.45;;
39066;SDS011;24821;51.988;6.020;2022-11-15T01:51:47;22.33;;;13.93;;
39066;SDS011;24821;51.988;6.020;2022-11-15T01:54:15;13.95;;;12.75;;
39066;SDS011;24821;51.988;6.020;2022-11-15T01:56:44;14.10;;;12.73;;
39066;SDS011;24821;51.988;6.020;2022-11-15T01:59:13;15.82;;;12.93;;
39066;SDS011;24821;51.988;6.020;2022-11-15T02:01:39;13.82;;;12.52;;
39066;SDS011;24821;51.988;6.020;2022-11-15T02:04:13;13.35;;;11.90;;
39066;SDS011;24821;51.988;6.020;2022-11-15T02:06:42;14.52;;;12.98;;
39066;SDS011;24821;51.988;6.020;2022-11-15T02:09:09;14.35;;;12.93;;
39066;SDS011;24821;51.988;6.020;2022-11-15T02:11:35;14.63;;;13.15;;
39066;SDS011;24821;51.988;6.020;2022-11-15T02:14:02;13.40;;;12.13;;
39066;SDS011;24821;51.988;6.020;2022-11-15T02:16:35;14.13;;;12.63;;
39066;SDS011;24821;51.988;6.020;2022-11-15T02:22:10;15.80;;;14.23;;
39066;SDS011;24821;51.988;6.020;2022-11-15T02:31:03;14.20;;;13.00;;
39066;SDS011;24821;51.988;6.020;2022-11-15T02:33:39;13.77;;;12.50;;
39066;SDS011;24821;51.988;6.020;2022-11-15T02:36:17;13.73;;;12.55;;
39066;SDS011;24821;51.988;6.020;2022-11-15T02:38:55;12.73;;;11.65;;
39066;SDS011;24821;51.988;6.020;2022-11-15T02:44:18;13.30;;;12.05;;
39066;SDS011;24821;51.988;6.020;2022-11-15T02:46:50;13.35;;;12.02;;
39066;SDS011;24821;51.988;6.020;2022-11-15T02:49:41;13.40;;;12.18;;
39066;SDS011;24821;51.988;6.020;2022-11-15T02:52:19;14.38;;;13.05;;
39066;SDS011;24821;51.988;6.020;2022-11-15T02:54:59;12.75;;;11.65;;
39066;SDS011;24821;51.988;6.020;2022-11-15T03:00:20;13.05;;;11.70;;
39066;SDS011;24821;51.988;6.020;2022-11-15T03:08:32;14.60;;;12.55;;
39066;SDS011;24821;51.988;6.020;2022-11-15T03:11:08;13.77;;;12.57;;
39066;SDS011;24821;51.988;6.020;2022-11-15T03:13:42;13.52;;;12.13;;
39066;SDS011;24821;51.988;6.020;2022-11-15T03:19:07;16.17;;;12.40;;
39066;SDS011;24821;51.988;6.020;2022-11-15T03:24:02;12.43;;;11.15;;
39066;SDS011;24821;51.988;6.020;2022-11-15T03:26:30;12.52;;;11.20;;
39066;SDS011;24821;51.988;6.020;2022-11-15T03:29:05;12.98;;;11.77;;
39066;SDS011;24821;51.988;6.020;2022-11-15T03:31:36;13.25;;;11.95;;
39066;SDS011;24821;51.988;6.020;2022-11-15T03:34:14;13.65;;;12.23;;
39066;SDS011;24821;51.988;6.020;2022-11-15T03:36:56;12.07;;;10.77;;
39066;SDS011;24821;51.988;6.020;2022-11-15T03:39:22;12.77;;;11.57;;
39066;SDS011;24821;51.988;6.020;2022-11-15T03:41:52;13.02;;;11.60;;
39066;SDS011;24821;51.988;6.020;2022-11-15T03:47:36;11.75;;;10.55;;
39066;SDS011;24821;51.988;6.020;2022-11-15T03:50:13;12.70;;;11.52;;
39066;SDS011;24821;51.988;6.020;2022-11-15T03:52:44;11.15;;;10.13;;
39066;SDS011;24821;51.988;6.020;2022-11-15T03:55:12;12.82;;;10.50;;
39066;SDS011;24821;51.988;6.020;2022-11-15T03:57:41;10.82;;;9.70;;
39066;SDS011;24821;51.988;6.020;2022-11-15T04:00:06;15.57;;;12.13;;
39066;SDS011;24821;51.988;6.020;2022-11-15T04:02:33;14.68;;;11.95;;
39066;SDS011;24821;51.988;6.020;2022-11-15T04:04:58;11.98;;;10.90;;
39066;SDS011;24821;51.988;6.020;2022-11-15T04:07:24;12.90;;;11.57;;
39066;SDS011;24821;51.988;6.020;2022-11-15T04:09:49;12.90;;;11.65;;
39066;SDS011;24821;51.988;6.020;2022-11-15T04:12:27;11.50;;;9.90;;
39066;SDS011;24821;51.988;6.020;2022-11-15T04:14:59;12.30;;;10.98;;
39066;SDS011;24821;51.988;6.020;2022-11-15T04:17:49;11.80;;;10.48;;
39066;SDS011;24821;51.988;6.020;2022-11-15T04:20:23;14.77;;;11.32;;
39066;SDS011;24821;51.988;6.020;2022-11-15T04:23:14;16.00;;;10.88;;
39066;SDS011;24821;51.988;6.020;2022-11-15T04:26:03;16.27;;;11.68;;
39066;SDS011;24821;51.988;6.020;2022-11-15T04:28:30;12.63;;;10.88;;
39066;SDS011;24821;51.988;6.020;2022-11-15T04:30:56;12.32;;;9.93;;
39066;SDS011;24821;51.988;6.020;2022-11-15T04:33:22;13.57;;;10.32;;
39066;SDS011;24821;51.988;6.020;2022-11-15T04:35:48;12.35;;;10.65;;
39066;SDS011;24821;51.988;6.020;2022-11-15T04:38:33;10.27;;;9.38;;
39066;SDS011;24821;51.988;6.020;2022-11-15T04:40:59;12.25;;;9.65;;
39066;SDS011;24821;51.988;6.020;2022-11-15T04:43:25;13.15;;;9.80;;
39066;SDS011;24821;51.988;6.020;2022-11-15T04:45:50;10.43;;;9.40;;
39066;SDS011;24821;51.988;6.020;2022-11-15T04:48:16;13.77;;;10.45;;
39066;SDS011;24821;51.988;6.020;2022-11-15T04:50:41;13.13;;;9.90;;
39066;SDS011;24821;51.988;6.020;2022-11-15T04:53:07;12.88;;;10.88;;
39066;SDS011;24821;51.988;6.020;2022-11-15T04:55:32;11.30;;;10.20;;
39066;SDS011;24821;51.988;6.020;2022-11-15T04:58:01;12.52;;;10.57;;
39066;SDS011;24821;51.988;6.020;2022-11-15T05:00:27;16.25;;;10.30;;
39066;SDS011;24821;51.988;6.020;2022-11-15T05:02:54;10.45;;;9.55;;
39066;SDS011;24821;51.988;6.020;2022-11-15T05:08:04;10.68;;;9.68;;
39066;SDS011;24821;51.988;6.020;2022-11-15T05:10:30;13.18;;;9.30;;
39066;SDS011;24821;51.988;6.020;2022-11-15T05:12:55;11.05;;;9.63;;
39066;SDS011;24821;51.988;6.020;2022-11-15T05:15:21;10.55;;;9.55;;
39066;SDS011;24821;51.988;6.020;2022-11-15T05:17:46;11.13;;;10.02;;
39066;SDS011;24821;51.988;6.020;2022-11-15T05:20:12;10.25;;;9.13;;
39066;SDS011;24821;51.988;6.020;2022-11-15T05:22:38;11.88;;;9.45;;
39066;SDS011;24821;51.988;6.020;2022-11-15T05:25:04;13.02;;;10.60;;
39066;SDS011;24821;51.988;6.020;2022-11-15T05:27:30;15.35;;;10.18;;
39066;SDS011;24821;51.988;6.020;2022-11-15T05:29:56;11.77;;;10.00;;
39066;SDS011;24821;51.988;6.020;2022-11-15T05:32:21;14.52;;;10.75;;
39066;SDS011;24821;51.988;6.020;2022-11-15T05:34:47;10.65;;;9.50;;
39066;SDS011;24821;51.988;6.020;2022-11-15T05:37:13;11.63;;;9.07;;
39066;SDS011;24821;51.988;6.020;2022-11-15T05:39:39;9.38;;;8.43;;
39066;SDS011;24821;51.988;6.020;2022-11-15T05:42:06;10.88;;;9.40;;
39066;SDS011;24821;51.988;6.020;2022-11-15T05:44:36;10.07;;;8.80;;
39066;SDS011;24821;51.988;6.020;2022-11-15T05:47:04;9.90;;;8.63;;
39066;SDS011;24821;51.988;6.020;2022-11-15T05:49:33;13.27;;;9.88;;
39066;SDS011;24821;51.988;6.020;2022-11-15T05:52:03;10.82;;;8.48;;
39066;SDS011;24821;51.988;6.020;2022-11-15T05:54:32;10.80;;;9.07;;
39066;SDS011;24821;51.988;6.020;2022-11-15T05:56:59;11.20;;;8.93;;
39066;SDS011;24821;51.988;6.020;2022-11-15T05:59:25;16.58;;;10.48;;
39066;SDS011;24821;51.988;6.020;2022-11-15T06:01:52;10.27;;;9.35;;
39066;SDS011;24821;51.988;6.020;2022-11-15T06:04:18;13.00;;;9.90;;
39066;SDS011;24821;51.988;6.020;2022-11-15T06:06:43;14.50;;;10.50;;
39066;SDS011;24821;51.988;6.020;2022-11-15T06:09:09;14.35;;;9.57;;
39066;SDS011;24821;51.988;6.020;2022-11-15T06:11:34;10.65;;;8.75;;
39066;SDS011;24821;51.988;6.020;2022-11-15T06:14:00;12.07;;;10.02;;
39066;SDS011;24821;51.988;6.020;2022-11-15T06:16:26;12.85;;;9.30;;
39066;SDS011;24821;51.988;6.020;2022-11-15T06:18:51;12.15;;;10.10;;
39066;SDS011;24821;51.988;6.020;2022-11-15T06:21:17;10.18;;;8.82;;
39066;SDS011;24821;51.988;6.020;2022-11-15T06:23:42;11.50;;;9.07;;
39066;SDS011;24821;51.988;6.020;2022-11-15T06:26:08;13.75;;;9.85;;
39066;SDS011;24821;51.988;6.020;2022-11-15T06:28:33;11.00;;;9.13;;
39066;SDS011;24821;51.988;6.020;2022-11-15T06:31:05;10.85;;;9.32;;
39066;SDS011;24821;51.988;6.020;2022-11-15T06:33:32;10.50;;;8.93;;
39066;SDS011;24821;51.988;6.020;2022-11-15T06:36:04;10.15;;;9.15;;
39066;SDS011;24821;51.988;6.020;2022-11-15T06:38:32;9.95;;;8.75;;
39066;SDS011;24821;51.988;6.020;2022-11-15T06:41:04;15.23;;;9.95;;
39066;SDS011;24821;51.988;6.020;2022-11-15T06:43:31;10.13;;;7.43;;
39066;SDS011;24821;51.988;6.020;2022-11-15T06:45:57;10.23;;;8.48;;
39066;SDS011;24821;51.988;6.020;2022-11-15T06:48:24;8.80;;;7.95;;
39066;SDS011;24821;51.988;6.020;2022-11-15T06:50:51;8.73;;;7.88;;
39066;SDS011;24821;51.988;6.020;2022-11-15T06:53:17;9.43;;;8.55;;
39066;SDS011;24821;51.988;6.020;2022-11-15T06:55:42;13.75;;;10.05;;
39066;SDS011;24821;51.988;6.020;2022-11-15T06:58:08;9.40;;;8.60;;
39066;SDS011;24821;51.988;6.020;2022-11-15T07:00:34;10.35;;;9.15;;
39066;SDS011;24821;51.988;6.020;2022-11-15T07:03:00;14.07;;;8.80;;
39066;SDS011;24821;51.988;6.020;2022-11-15T07:05:26;10.45;;;9.07;;
39066;SDS011;24821;51.988;6.020;2022-11-15T07:07:52;9.32;;;8.07;;
39066;SDS011;24821;51.988;6.020;2022-11-15T07:10:20;13.20;;;10.95;;
39066;SDS011;24821;51.988;6.020;2022-11-15T07:12:47;9.45;;;8.10;;
39066;SDS011;24821;51.988;6.020;2022-11-15T07:15:13;9.60;;;8.60;;
39066;SDS011;24821;51.988;6.020;2022-11-15T07:17:40;12.27;;;9.32;;
39066;SDS011;24821;51.988;6.020;2022-11-15T07:20:06;11.98;;;8.57;;
39066;SDS011;24821;51.988;6.020;2022-11-15T07:22:32;9.32;;;8.27;;
39066;SDS011;24821;51.988;6.020;2022-11-15T07:24:57;10.52;;;8.57;;
39066;SDS011;24821;51.988;6.020;2022-11-15T07:27:23;8.95;;;7.80;;
39066;SDS011;24821;51.988;6.020;2022-11-15T07:29:48;7.93;;;7.13;;
39066;SDS011;24821;51.988;6.020;2022-11-15T07:32:14;8.68;;;7.78;;
39066;SDS011;24821;51.988;6.020;2022-11-15T07:34:39;8.88;;;7.80;;
39066;SDS011;24821;51.988;6.020;2022-11-15T07:37:05;9.50;;;7.97;;
39066;SDS011;24821;51.988;6.020;2022-11-15T07:39:30;8.57;;;6.80;;
39066;SDS011;24821;51.988;6.020;2022-11-15T07:41:56;8.93;;;8.02;;
39066;SDS011;24821;51.988;6.020;2022-11-15T07:44:41;9.63;;;8.05;;
39066;SDS011;24821;51.988;6.020;2022-11-15T07:47:07;12.25;;;8.43;;
39066;SDS011;24821;51.988;6.020;2022-11-15T07:49:32;10.10;;;8.70;;
39066;SDS011;24821;51.988;6.020;2022-11-15T07:51:58;7.85;;;7.15;;
39066;SDS011;24821;51.988;6.020;2022-11-15T07:54:24;9.27;;;8.07;;
39066;SDS011;24821;51.988;6.020;2022-11-15T07:56:49;9.10;;;7.93;;
39066;SDS011;24821;51.988;6.020;2022-11-15T07:59:15;8.13;;;7.35;;
39066;SDS011;24821;51.988;6.020;2022-11-15T08:01:40;9.55;;;7.75;;
39066;SDS011;24821;51.988;6.020;2022-11-15T08:04:06;9.95;;;8.60;;
39066;SDS011;24821;51.988;6.020;2022-11-15T08:06:31;9.98;;;9.00;;
39066;SDS011;24821;51.988;6.020;2022-11-15T08:08:57;9.02;;;8.23;;
39066;SDS011;24821;51.988;6.020;2022-11-15T08:11:22;8.48;;;7.68;;
39066;SDS011;24821;51.988;6.020;2022-11-15T08:13:48;8.43;;;7.63;;
39066;SDS011;24821;51.988;6.020;2022-11-15T08:16:13;10.52;;;8.45;;
39066;SDS011;24821;51.988;6.020;2022-11-15T08:18:39;16.25;;;8.25;;
39066;SDS011;24821;51.988;6.020;2022-11-15T08:21:04;8.55;;;7.85;;
39066;SDS011;24821;51.988;6.020;2022-11-15T08:23:30;8.82;;;7.93;;
39066;SDS011;24821;51.988;6.020;2022-11-15T08:26:00;8.45;;;7.70;;
39066;SDS011;24821;51.988;6.020;2022-11-15T08:28:29;8.43;;;7.43;;
39066;SDS011;24821;51.988;6.020;2022-11-15T08:30:55;8.60;;;7.80;;
39066;SDS011;24821;51.988;6.020;2022-11-15T08:33:21;8.70;;;7.88;;
39066;SDS011;24821;51.988;6.020;2022-11-15T08:35:46;10.77;;;8.32;;
39066;SDS011;24821;51.988;6.020;2022-11-15T08:38:13;8.57;;;7.72;;
39066;SDS011;24821;51.988;6.020;2022-11-15T08:40:39;9.07;;;8.20;;
39066;SDS011;24821;51.988;6.020;2022-11-15T08:43:05;12.40;;;8.90;;
39066;SDS011;24821;51.988;6.020;2022-11-15T08:45:31;15.43;;;14.00;;
39066;SDS011;24821;51.988;6.020;2022-11-15T08:48:00;12.20;;;11.13;;
39066;SDS011;24821;51.988;6.020;2022-11-15T08:50:26;13.45;;;10.23;;
39066;SDS011;24821;51.988;6.020;2022-11-15T08:52:51;9.57;;;8.88;;
39066;SDS011;24821;51.988;6.020;2022-11-15T08:55:17;10.38;;;9.38;;
39066;SDS011;24821;51.988;6.020;2022-11-15T08:57:42;9.05;;;8.27;;
39066;SDS011;24821;51.988;6.020;2022-11-15T09:00:08;9.93;;;9.02;;
39066;SDS011;24821;51.988;6.020;2022-11-15T09:02:34;9.07;;;8.30;;
39066;SDS011;24821;51.988;6.020;2022-11-15T09:05:02;9.30;;;8.48;;
39066;SDS011;24821;51.988;6.020;2022-11-15T09:07:27;9.10;;;8.20;;
39066;SDS011;24821;51.988;6.020;2022-11-15T09:09:54;9.95;;;9.00;;
39066;SDS011;24821;51.988;6.020;2022-11-15T09:12:20;9.30;;;8.13;;
39066;SDS011;24821;51.988;6.020;2022-11-15T09:14:46;9.95;;;9.05;;
39066;SDS011;24821;51.988;6.020;2022-11-15T09:17:11;10.30;;;8.68;;
39066;SDS011;24821;51.988;6.020;2022-11-15T09:19:37;8.45;;;7.65;;
39066;SDS011;24821;51.988;6.020;2022-11-15T09:22:05;8.18;;;7.00;;
39066;SDS011;24821;51.988;6.020;2022-11-15T09:24:31;7.75;;;7.05;;
39066;SDS011;24821;51.988;6.020;2022-11-15T09:26:57;7.43;;;6.78;;
39066;SDS011;24821;51.988;6.020;2022-11-15T09:29:23;7.22;;;6.70;;
39066;SDS011;24821;51.988;6.020;2022-11-15T09:31:48;6.72;;;6.18;;
39066;SDS011;24821;51.988;6.020;2022-11-15T09:34:16;6.80;;;6.20;;
39066;SDS011;24821;51.988;6.020;2022-11-15T09:36:41;7.05;;;6.35;;
39066;SDS011;24821;51.988;6.020;2022-11-15T09:39:07;9.82;;;7.13;;
39066;SDS011;24821;51.988;6.020;2022-11-15T09:49:24;11.18;;;6.55;;
39066;SDS011;24821;51.988;6.020;2022-11-15T09:51:50;7.60;;;6.95;;
39066;SDS011;24821;51.988;6.020;2022-11-15T09:54:23;6.63;;;6.13;;
39066;SDS011;24821;51.988;6.020;2022-11-15T09:57:06;6.90;;;6.28;;
39066;SDS011;24821;51.988;6.020;2022-11-15T10:05:23;8.45;;;7.30;;
39066;SDS011;24821;51.988;6.020;2022-11-15T10:08:05;7.18;;;6.38;;
39066;SDS011;24821;51.988;6.020;2022-11-15T10:10:44;9.65;;;6.53;;
39066;SDS011;24821;51.988;6.020;2022-11-15T10:13:24;13.05;;;6.55;;
39066;SDS011;24821;51.988;6.020;2022-11-15T10:15:53;6.32;;;5.80;;
39066;SDS011;24821;51.988;6.020;2022-11-15T10:18:35;7.63;;;6.93;;
39066;SDS011;24821;51.988;6.020;2022-11-15T10:21:15;6.45;;;5.93;;
39066;SDS011;24821;51.988;6.020;2022-11-15T10:23:44;5.78;;;5.35;;
39066;SDS011;24821;51.988;6.020;2022-11-15T10:26:11;6.03;;;5.63;;
39066;SDS011;24821;51.988;6.020;2022-11-15T10:28:41;5.07;;;4.78;;
39066;SDS011;24821;51.988;6.020;2022-11-15T10:31:26;5.05;;;4.75;;
39066;SDS011;24821;51.988;6.020;2022-11-15T10:34:09;5.47;;;4.97;;
39066;SDS011;24821;51.988;6.020;2022-11-15T10:36:45;7.70;;;3.55;;
39066;SDS011;24821;51.988;6.020;2022-11-15T10:39:12;6.32;;;4.15;;
39066;SDS011;24821;51.988;6.020;2022-11-15T10:41:39;4.05;;;3.03;;
39066;SDS011;24821;51.988;6.020;2022-11-15T10:49:18;5.15;;;3.10;;
39066;SDS011;24821;51.988;6.020;2022-11-15T10:52:01;4.20;;;3.35;;
39066;SDS011;24821;51.988;6.020;2022-11-15T10:57:10;4.65;;;3.30;;
39066;SDS011;24821;51.988;6.020;2022-11-15T10:59:42;3.55;;;3.25;;
39066;SDS011;24821;51.988;6.020;2022-11-15T11:08:05;2.65;;;2.45;;
39066;SDS011;24821;51.988;6.020;2022-11-15T11:10:58;3.10;;;2.90;;
39066;SDS011;24821;51.988;6.020;2022-11-15T11:13:26;5.15;;;3.08;;
39066;SDS011;24821;51.988;6.020;2022-11-15T11:18:45;2.80;;;2.70;;
39066;SDS011;24821;51.988;6.020;2022-11-15T11:21:17;2.90;;;2.80;;
39066;SDS011;24821;51.988;6.020;2022-11-15T11:23:53;3.45;;;3.35;;
39066;SDS011;24821;51.988;6.020;2022-11-15T11:26:40;5.05;;;4.57;;
39066;SDS011;24821;51.988;6.020;2022-11-15T11:29:20;4.80;;;4.50;;
39066;SDS011;24821;51.988;6.020;2022-11-15T11:34:59;3.25;;;3.15;;
39066;SDS011;24821;51.988;6.020;2022-11-15T11:51:39;3.33;;;3.15;;
39066;SDS011;24821;51.988;6.020;2022-11-15T11:54:11;4.10;;;3.75;;
39066;SDS011;24821;51.988;6.020;2022-11-15T11:56:58;3.45;;;3.35;;
39066;SDS011;24821;51.988;6.020;2022-11-15T11:59:29;3.15;;;3.05;;
39066;SDS011;24821;51.988;6.020;2022-11-15T12:02:19;3.15;;;3.05;;
39066;SDS011;24821;51.988;6.020;2022-11-15T12:05:08;3.50;;;3.22;;
39066;SDS011;24821;51.988;6.020;2022-11-15T12:10:11;6.35;;;3.60;;
39066;SDS011;24821;51.988;6.020;2022-11-15T12:12:52;4.95;;;3.40;;
39066;SDS011;24821;51.988;6.020;2022-11-15T12:15:26;3.67;;;3.40;;
39066;SDS011;24821;51.988;6.020;2022-11-15T12:17:56;2.80;;;2.53;;
39066;SDS011;24821;51.988;6.020;2022-11-15T12:20:25;2.83;;;2.55;;
39066;SDS011;24821;51.988;6.020;2022-11-15T12:23:11;2.40;;;2.30;;
39066;SDS011;24821;51.988;6.020;2022-11-15T12:28:35;3.00;;;2.75;;
39066;SDS011;24821;51.988;6.020;2022-11-15T12:38:55;2.47;;;2.38;;
39066;SDS011;24821;51.988;6.020;2022-11-15T12:41:22;2.40;;;2.30;;
39066;SDS011;24821;51.988;6.020;2022-11-15T12:44:12;2.50;;;2.40;;
39066;SDS011;24821;51.988;6.020;2022-11-15T13:02:23;2.90;;;2.70;;
39066;SDS011;24821;51.988;6.020;2022-11-15T13:17:45;2.05;;;1.88;;
39066;SDS011;24821;51.988;6.020;2022-11-15T13:20:19;5.28;;;1.80;;
39066;SDS011;24821;51.988;6.020;2022-11-15T13:30:26;1.30;;;1.20;;
39066;SDS011;24821;51.988;6.020;2022-11-15T13:32:54;2.97;;;1.55;;
39066;SDS011;24821;51.988;6.020;2022-11-15T13:35:27;6.53;;;1.70;;
39066;SDS011;24821;51.988;6.020;2022-11-15T13:37:55;1.83;;;1.73;;
39066;SDS011;24821;51.988;6.020;2022-11-15T13:40:24;1.77;;;1.67;;
39066;SDS011;24821;51.988;6.020;2022-11-15T13:42:52;1.42;;;1.42;;
39066;SDS011;24821;51.988;6.020;2022-11-15T13:45:19;1.70;;;1.60;;
39066;SDS011;24821;51.988;6.020;2022-11-15T13:47:44;1.38;;;1.38;;
39066;SDS011;24821;51.988;6.020;2022-11-15T13:50:15;1.60;;;1.50;;
39066;SDS011;24821;51.988;6.020;2022-11-15T13:52:42;1.85;;;1.75;;
39066;SDS011;24821;51.988;6.020;2022-11-15T13:55:12;1.77;;;1.67;;
39066;SDS011;24821;51.988;6.020;2022-11-15T14:05:47;2.35;;;1.85;;
39066;SDS011;24821;51.988;6.020;2022-11-15T14:08:59;1.50;;;1.40;;
39066;SDS011;24821;51.988;6.020;2022-11-15T14:11:29;1.60;;;1.50;;
39066;SDS011;24821;51.988;6.020;2022-11-15T14:14:01;1.60;;;1.50;;
39066;SDS011;24821;51.988;6.020;2022-11-15T14:19:11;1.70;;;1.70;;
39066;SDS011;24821;51.988;6.020;2022-11-15T14:24:39;1.63;;;1.63;;
39066;SDS011;24821;51.988;6.020;2022-11-15T14:29:48;1.98;;;1.88;;
39066;SDS011;24821;51.988;6.020;2022-11-15T14:32:15;1.77;;;1.77;;
39066;SDS011;24821;51.988;6.020;2022-11-15T14:37:26;2.10;;;2.03;;
39066;SDS011;24821;51.988;6.020;2022-11-15T14:40:00;2.30;;;2.20;;
39066;SDS011;24821;51.988;6.020;2022-11-15T14:42:28;2.17;;;2.17;;
39066;SDS011;24821;51.988;6.020;2022-11-15T14:44:53;2.65;;;2.45;;
39066;SDS011;24821;51.988;6.020;2022-11-15T14:47:19;2.40;;;2.25;;
39066;SDS011;24821;51.988;6.020;2022-11-15T14:49:45;3.55;;;2.60;;
39066;SDS011;24821;51.988;6.020;2022-11-15T14:52:16;2.03;;;2.03;;
39066;SDS011;24821;51.988;6.020;2022-11-15T14:54:49;2.45;;;2.25;;
39066;SDS011;24821;51.988;6.020;2022-11-15T14:57:15;2.63;;;2.42;;
39066;SDS011;24821;51.988;6.020;2022-11-15T14:59:40;2.45;;;2.35;;
39066;SDS011;24821;51.988;6.020;2022-11-15T15:02:13;6.10;;;2.78;;
39066;SDS011;24821;51.988;6.020;2022-11-15T15:04:44;2.10;;;1.92;;
39066;SDS011;24821;51.988;6.020;2022-11-15T15:07:09;2.45;;;2.35;;
39066;SDS011;24821;51.988;6.020;2022-11-15T15:09:35;2.67;;;2.58;;
39066;SDS011;24821;51.988;6.020;2022-11-15T15:12:00;2.30;;;2.20;;
39066;SDS011;24821;51.988;6.020;2022-11-15T15:14:26;2.60;;;2.40;;
39066;SDS011;24821;51.988;6.020;2022-11-15T15:16:52;2.30;;;2.20;;
39066;SDS011;24821;51.988;6.020;2022-11-15T15:19:17;2.50;;;2.40;;
39066;SDS011;24821;51.988;6.020;2022-11-15T15:21:43;2.40;;;2.30;;
39066;SDS011;24821;51.988;6.020;2022-11-15T15:24:13;2.30;;;2.20;;
39066;SDS011;24821;51.988;6.020;2022-11-15T15:26:39;2.20;;;2.10;;
39066;SDS011;24821;51.988;6.020;2022-11-15T15:29:05;2.67;;;2.47;;
39066;SDS011;24821;51.988;6.020;2022-11-15T15:31:33;2.15;;;2.05;;
39066;SDS011;24821;51.988;6.020;2022-11-15T15:33:59;2.38;;;2.28;;
39066;SDS011;24821;51.988;6.020;2022-11-15T15:36:25;2.47;;;2.38;;
39066;SDS011;24821;51.988;6.020;2022-11-15T15:38:50;3.40;;;3.10;;
39066;SDS011;24821;51.988;6.020;2022-11-15T15:41:16;2.22;;;2.13;;
39066;SDS011;24821;51.988;6.020;2022-11-15T15:43:42;5.32;;;2.15;;
39066;SDS011;24821;51.988;6.020;2022-11-15T15:46:12;2.08;;;1.98;;
39066;SDS011;24821;51.988;6.020;2022-11-15T15:48:40;3.95;;;2.50;;
39066;SDS011;24821;51.988;6.020;2022-11-15T15:51:06;2.85;;;2.47;;
39066;SDS011;24821;51.988;6.020;2022-11-15T15:53:32;2.40;;;2.20;;
39066;SDS011;24821;51.988;6.020;2022-11-15T15:55:58;2.20;;;2.10;;
39066;SDS011;24821;51.988;6.020;2022-11-15T15:58:23;2.53;;;2.35;;
39066;SDS011;24821;51.988;6.020;2022-11-15T16:00:49;2.25;;;2.15;;
39066;SDS011;24821;51.988;6.020;2022-11-15T16:03:15;2.40;;;2.30;;
39066;SDS011;24821;51.988;6.020;2022-11-15T16:05:40;2.38;;;2.17;;
39066;SDS011;24821;51.988;6.020;2022-11-15T16:08:09;2.13;;;2.08;;
39066;SDS011;24821;51.988;6.020;2022-11-15T16:10:42;2.25;;;2.05;;
39066;SDS011;24821;51.988;6.020;2022-11-15T16:13:07;2.55;;;2.35;;
39066;SDS011;24821;51.988;6.020;2022-11-15T16:15:33;2.58;;;2.30;;
39066;SDS011;24821;51.988;6.020;2022-11-15T16:18:00;7.55;;;2.40;;
39066;SDS011;24821;51.988;6.020;2022-11-15T16:23:05;3.20;;;2.20;;
39066;SDS011;24821;51.988;6.020;2022-11-15T16:25:43;2.63;;;2.42;;
39066;SDS011;24821;51.988;6.020;2022-11-15T16:30:47;2.78;;;2.58;;
39066;SDS011;24821;51.988;6.020;2022-11-15T16:33:14;2.53;;;2.42;;
39066;SDS011;24821;51.988;6.020;2022-11-15T16:35:39;2.70;;;2.60;;
39066;SDS011;24821;51.988;6.020;2022-11-15T16:38:05;3.15;;;2.92;;
39066;SDS011;24821;51.988;6.020;2022-11-15T16:40:33;2.50;;;2.40;;
39066;SDS011;24821;51.988;6.020;2022-11-15T16:43:00;2.58;;;2.40;;
39066;SDS011;24821;51.988;6.020;2022-11-15T16:45:27;2.60;;;2.40;;
39066;SDS011;24821;51.988;6.020;2022-11-15T16:47:56;2.80;;;2.60;;
39066;SDS011;24821;51.988;6.020;2022-11-15T16:50:22;2.30;;;2.20;;
39066;SDS011;24821;51.988;6.020;2022-11-15T16:52:53;8.35;;;2.90;;
39066;SDS011;24821;51.988;6.020;2022-11-15T16:55:21;2.33;;;2.22;;
39066;SDS011;24821;51.988;6.020;2022-11-15T16:57:50;2.70;;;2.50;;
39066;SDS011;24821;51.988;6.020;2022-11-15T17:00:17;4.75;;;2.83;;
39066;SDS011;24821;51.988;6.020;2022-11-15T17:02:44;3.03;;;2.80;;
39066;SDS011;24821;51.988;6.020;2022-11-15T17:05:11;2.80;;;2.60;;
39066;SDS011;24821;51.988;6.020;2022-11-15T17:07:38;2.95;;;2.75;;
39066;SDS011;24821;51.988;6.020;2022-11-15T17:10:04;2.35;;;2.25;;
39066;SDS011;24821;51.988;6.020;2022-11-15T17:12:31;3.03;;;2.40;;
39066;SDS011;24821;51.988;6.020;2022-11-15T17:14:58;2.33;;;2.22;;
39066;SDS011;24821;51.988;6.020;2022-11-15T17:17:23;2.95;;;2.75;;
39066;SDS011;24821;51.988;6.020;2022-11-15T17:19:50;3.38;;;3.08;;
39066;SDS011;24821;51.988;6.020;2022-11-15T17:22:17;2.60;;;2.40;;